sensor_id;sensor_type;location;lat;lon;timestamp;pressure;altitude;pressure_sealevel;temperature;humidity
73316;BME280;61545;53.726;-0.444;2023-12-07T00:01:45;1012.8;;;2.0;100.0
73316;BME280;61545;53.726;-0.444;2023-12-07T00:06:46;1012.7;;;2.0;100.0
73316;BME280;61545;53.726;-0.444;2023-12-07T00:11:45;1012.7;;;2.0;100.0
73316;BME280;61545;53.726;-0.444;2023-12-07T00:16:45;1012.6;;;2.1;100.0
73316;BME280;61545;53.726;-0.444;2023-12-07T00:21:45;1012.6;;;2.0;100.0
73316;BME280;61545;53.726;-0.444;2023-12-07T00:26:46;1012.6;;;2.0;100.0
73316;BME280;61545;53.726;-0.444;2023-12-07T00:31:45;1012.5;;;unknown;100.0
73316;BME280;61545;53.726;-0.444;2023-12-07T00:36:46;1012.5;;;2.1;100.0
73316;BME280;61545;53.726;-0.444;2023-12-07T00:41:45;1012.5;;;2.0;100.0
73316;BME280;61545;53.726;-0.444;2023-12-07T00:46:46;1012.4;;;2.2;100.0
73316;BME280;61545;53.726;-0.444;2023-12-07T00:51:45;1012.4;;;2.2;100.0
73316;BME280;61545;53.726;-0.444;2023-12-07T00:56:46;1012.3;;;2.2;100.0
73316;BME280;61545;53.726;-0.444;2023-12-07T01:01:46;1012.3;;;unknown;100.0
73316;BME280;61545;53.726;-0.444;2023-12-07T01:06:46;1012.3;;;2.1;100.0
73316;BME280;61545;53.726;-0.444;2023-12-07T01:11:45;1012.3;;;2.3;100.0
73316;BME280;61545;53.726;-0.444;2023-12-07T01:16:45;1012.2;;;2.2;100.0
73316;BME280;61545;53.726;-0.444;2023-12-07T01:21:46;1012.1;;;2.2;100.0
73316;BME280;61545;53.726;-0.444;2023-12-07T01:26:46;1012.1;;;2.2;100.0
73316;BME280;61545;53.726;-0.444;2023-12-07T01:31:46;1012.0;;;2.4;100.0
73316;BME280;61545;53.726;-0.444;2023-12-07T01:36:46;1011.9;;;2.4;100.0
73316;BME280;61545;53.726;-0.444;2023-12-07T01:41:46;1011.8;;;2.3;100.0
73316;BME280;61545;53.726;-0.444;2023-12-07T01:46:46;1011.8;;;2.3;100.0
73316;BME280;61545;53.726;-0.444;2023-12-07T01:51:45;1011.7;;;2.3;100.0
73316;BME280;61545;53.726;-0.444;2023-12-07T01:56:45;1011.6;;;2.5;100.0
73316;BME280;61545;53.726;-0.444;2023-12-07T02:01:45;1011.5;;;2.5;100.0
73316;BME280;61545;53.726;-0.444;2023-12-07T02:06:46;1011.5;;;2.4;100.0
73316;BME280;61545;53.726;-0.444;2023-12-07T02:11:46;1011.5;;;2.5;100.0
73316;BME280;61545;53.726;-0.444;2023-12-07T02:16:48;1011.4;;;2.7;100.0
73316;BME280;61545;53.726;-0.444;2023-12-07T02:21:47;1011.4;;;2.7;100.0
73316;BME280;61545;53.726;-0.444;2023-12-07T02:26:46;1011.3;;;2.6;100.0
73316;BME280;61545;53.726;-0.444;2023-12-07T02:31:46;1011.4;;;2.6;100.0
73316;BME280;61545;53.726;-0.444;2023-12-07T02:36:46;1011.4;;;2.7;100.0
73316;BME280;61545;53.726;-0.444;2023-12-07T02:41:46;1011.4;;;2.7;100.0
73316;BME280;61545;53.726;-0.444;2023-12-07T02:46:46;1011.3;;;2.7;100.0
73316;BME280;61545;53.726;-0.444;2023-12-07T02:51:45;1011.1;;;2.6;100.0
73316;BME280;61545;53.726;-0.444;2023-12-07T02:56:47;1011.0;;;2.6;100.0
73316;BME280;61545;53.726;-0.444;2023-12-07T03:01:46;1011.0;;;2.7;100.0
73316;BME280;61545;53.726;-0.444;2023-12-07T03:06:46;1010.9;;;2.6;100.0
73316;BME280;61545;53.726;-0.444;2023-12-07T03:11:46;1010.7;;;2.7;100.0
73316;BME280;61545;53.726;-0.444;2023-12-07T03:16:46;1010.8;;;2.6;100.0
73316;BME280;61545;53.726;-0.444;2023-12-07T03:21:46;1010.7;;;unknown;100.0
73316;BME280;61545;53.726;-0.444;2023-12-07T03:26:46;1010.7;;;2.7;100.0
73316;BME280;61545;53.726;-0.444;2023-12-07T03:31:46;1010.6;;;2.7;100.0
73316;BME280;61545;53.726;-0.444;2023-12-07T03:36:46;1010.6;;;2.7;100.0
73316;BME280;61545;53.726;-0.444;2023-12-07T03:41:46;1010.5;;;unknown;100.0
73316;BME280;61545;53.726;-0.444;2023-12-07T03:46:46;1010.5;;;2.7;100.0
73316;BME280;61545;53.726;-0.444;2023-12-07T03:51:46;1010.4;;;2.8;100.0
73316;BME280;61545;53.726;-0.444;2023-12-07T03:56:46;1010.3;;;2.7;100.0
73316;BME280;61545;53.726;-0.444;2023-12-07T04:01:46;1010.2;;;2.8;100.0
73316;BME280;61545;53.726;-0.444;2023-12-07T04:06:46;1010.1;;;2.8;100.0
73316;BME280;61545;53.726;-0.444;2023-12-07T04:11:46;1010.1;;;unknown;100.0
73316;BME280;61545;53.726;-0.444;2023-12-07T04:16:46;1010.0;;;unknown;100.0
73316;BME280;61545;53.726;-0.444;2023-12-07T04:21:46;1010.0;;;unknown;100.0
73316;BME280;61545;53.726;-0.444;2023-12-07T04:26:46;1009.9;;;2.8;100.0
73316;BME280;61545;53.726;-0.444;2023-12-07T04:31:46;1009.8;;;2.9;100.0
73316;BME280;61545;53.726;-0.444;2023-12-07T04:36:46;1009.8;;;unknown;100.0
73316;BME280;61545;53.726;-0.444;2023-12-07T04:41:46;1009.7;;;2.9;100.0
73316;BME280;61545;53.726;-0.444;2023-12-07T04:46:46;1009.6;;;3.0;100.0
73316;BME280;61545;53.726;-0.444;2023-12-07T04:51:46;1009.6;;;3.0;100.0
73316;BME280;61545;53.726;-0.444;2023-12-07T04:56:46;1009.4;;;3.0;100.0
73316;BME280;61545;53.726;-0.444;2023-12-07T05:01:46;1009.3;;;unknown;100.0
73316;BME280;61545;53.726;-0.444;2023-12-07T05:06:46;1009.2;;;unknown;100.0
73316;BME280;61545;53.726;-0.444;2023-12-07T05:11:46;1009.1;;;3.1;100.0
73316;BME280;61545;53.726;-0.444;2023-12-07T05:16:46;1009.1;;;3.1;100.0
73316;BME280;61545;53.726;-0.444;2023-12-07T05:21:46;1009.1;;;3.2;100.0
73316;BME280;61545;53.726;-0.444;2023-12-07T05:26:46;1009.0;;;unknown;100.0
73316;BME280;61545;53.726;-0.444;2023-12-07T05:31:48;1009.0;;;3.2;100.0
73316;BME280;61545;53.726;-0.444;2023-12-07T05:36:46;1008.9;;;3.2;100.0
73316;BME280;61545;53.726;-0.444;2023-12-07T05:41:46;1008.8;;;3.3;100.0
73316;BME280;61545;53.726;-0.444;2023-12-07T05:46:46;1008.6;;;unknown;100.0
73316;BME280;61545;53.726;-0.444;2023-12-07T05:51:46;1008.6;;;unknown;100.0
73316;BME280;61545;53.726;-0.444;2023-12-07T05:56:46;1008.6;;;3.4;100.0
73316;BME280;61545;53.726;-0.444;2023-12-07T06:01:46;1008.6;;;3.4;100.0
73316;BME280;61545;53.726;-0.444;2023-12-07T06:06:46;1008.5;;;3.4;100.0
73316;BME280;61545;53.726;-0.444;2023-12-07T06:11:46;1008.5;;;3.5;100.0
73316;BME280;61545;53.726;-0.444;2023-12-07T06:16:46;1008.5;;;3.5;100.0
73316;BME280;61545;53.726;-0.444;2023-12-07T06:21:46;1008.4;;;3.5;100.0
73316;BME280;61545;53.726;-0.444;2023-12-07T06:26:46;1008.5;;;3.5;100.0
73316;BME280;61545;53.726;-0.444;2023-12-07T06:31:46;1008.4;;;unknown;100.0
73316;BME280;61545;53.726;-0.444;2023-12-07T06:36:46;1008.3;;;3.6;100.0
73316;BME280;61545;53.726;-0.444;2023-12-07T06:41:46;1008.2;;;3.6;100.0
73316;BME280;61545;53.726;-0.444;2023-12-07T06:46:46;1008.1;;;3.7;100.0
73316;BME280;61545;53.726;-0.444;2023-12-07T06:51:46;1008.0;;;3.7;100.0
73316;BME280;61545;53.726;-0.444;2023-12-07T06:56:46;1008.0;;;3.7;100.0
73316;BME280;61545;53.726;-0.444;2023-12-07T07:01:46;1007.9;;;3.7;100.0
73316;BME280;61545;53.726;-0.444;2023-12-07T07:06:46;1007.9;;;3.7;100.0
73316;BME280;61545;53.726;-0.444;2023-12-07T07:11:47;1007.7;;;3.7;100.0
73316;BME280;61545;53.726;-0.444;2023-12-07T07:16:46;1007.6;;;3.8;100.0
73316;BME280;61545;53.726;-0.444;2023-12-07T07:21:46;1007.5;;;3.8;100.0
73316;BME280;61545;53.726;-0.444;2023-12-07T07:26:46;1007.5;;;3.8;100.0
73316;BME280;61545;53.726;-0.444;2023-12-07T07:31:46;1007.3;;;3.9;100.0
73316;BME280;61545;53.726;-0.444;2023-12-07T07:36:46;1007.3;;;4.0;100.0
73316;BME280;61545;53.726;-0.444;2023-12-07T07:41:46;1007.3;;;3.9;100.0
73316;BME280;61545;53.726;-0.444;2023-12-07T07:46:46;1007.4;;;4.0;100.0
73316;BME280;61545;53.726;-0.444;2023-12-07T07:51:46;1007.2;;;unknown;100.0
73316;BME280;61545;53.726;-0.444;2023-12-07T07:56:46;1007.2;;;3.9;100.0
73316;BME280;61545;53.726;-0.444;2023-12-07T08:01:46;1007.1;;;4.0;100.0
73316;BME280;61545;53.726;-0.444;2023-12-07T08:06:46;1007.0;;;4.0;100.0
73316;BME280;61545;53.726;-0.444;2023-12-07T08:11:46;1007.0;;;unknown;100.0
73316;BME280;61545;53.726;-0.444;2023-12-07T08:16:46;1006.9;;;4.1;100.0
73316;BME280;61545;53.726;-0.444;2023-12-07T08:21:46;1006.9;;;unknown;100.0
73316;BME280;61545;53.726;-0.444;2023-12-07T08:26:46;1006.9;;;4.1;100.0
73316;BME280;61545;53.726;-0.444;2023-12-07T08:31:46;1006.8;;;unknown;100.0
73316;BME280;61545;53.726;-0.444;2023-12-07T08:36:46;1006.7;;;4.2;100.0
73316;BME280;61545;53.726;-0.444;2023-12-07T08:41:46;1006.7;;;4.1;100.0
73316;BME280;61545;53.726;-0.444;2023-12-07T08:46:46;1006.7;;;4.2;100.0
73316;BME280;61545;53.726;-0.444;2023-12-07T08:51:46;1006.6;;;4.2;100.0
73316;BME280;61545;53.726;-0.444;2023-12-07T08:56:46;1006.5;;;unknown;100.0
73316;BME280;61545;53.726;-0.444;2023-12-07T09:01:46;1006.4;;;4.2;100.0
73316;BME280;61545;53.726;-0.444;2023-12-07T09:06:46;1006.4;;;unknown;100.0
73316;BME280;61545;53.726;-0.444;2023-12-07T09:11:46;1006.3;;;4.3;100.0
73316;BME280;61545;53.726;-0.444;2023-12-07T09:16:46;1006.3;;;4.3;100.0
73316;BME280;61545;53.726;-0.444;2023-12-07T09:21:46;1006.2;;;4.3;100.0
73316;BME280;61545;53.726;-0.444;2023-12-07T09:26:46;1006.1;;;unknown;100.0
73316;BME280;61545;53.726;-0.444;2023-12-07T09:31:46;1006.0;;;4.4;100.0
73316;BME280;61545;53.726;-0.444;2023-12-07T09:36:46;1005.9;;;4.4;100.0
73316;BME280;61545;53.726;-0.444;2023-12-07T09:41:46;1005.9;;;4.4;100.0
73316;BME280;61545;53.726;-0.444;2023-12-07T09:46:46;1005.9;;;4.4;100.0
73316;BME280;61545;53.726;-0.444;2023-12-07T09:51:46;1005.9;;;4.4;100.0
73316;BME280;61545;53.726;-0.444;2023-12-07T09:56:46;1005.9;;;4.4;100.0
73316;BME280;61545;53.726;-0.444;2023-12-07T10:01:46;1005.7;;;4.5;100.0
73316;BME280;61545;53.726;-0.444;2023-12-07T10:06:46;1005.6;;;4.5;100.0
73316;BME280;61545;53.726;-0.444;2023-12-07T10:11:46;1005.5;;;4.5;100.0
73316;BME280;61545;53.726;-0.444;2023-12-07T10:16:52;1005.5;;;4.5;100.0
73316;BME280;61545;53.726;-0.444;2023-12-07T10:21:46;1005.3;;;4.6;100.0
73316;BME280;61545;53.726;-0.444;2023-12-07T10:26:47;1005.3;;;4.6;100.0
73316;BME280;61545;53.726;-0.444;2023-12-07T10:31:46;1005.1;;;4.6;100.0
73316;BME280;61545;53.726;-0.444;2023-12-07T10:36:46;1005.0;;;unknown;100.0
73316;BME280;61545;53.726;-0.444;2023-12-07T10:41:46;1004.9;;;unknown;100.0
73316;BME280;61545;53.726;-0.444;2023-12-07T10:46:46;1004.8;;;4.7;100.0
73316;BME280;61545;53.726;-0.444;2023-12-07T10:51:50;1004.8;;;4.7;100.0
73316;BME280;61545;53.726;-0.444;2023-12-07T10:56:46;1004.7;;;4.7;100.0
73316;BME280;61545;53.726;-0.444;2023-12-07T11:01:46;1004.6;;;4.8;100.0
73316;BME280;61545;53.726;-0.444;2023-12-07T11:06:46;1004.5;;;4.8;100.0
73316;BME280;61545;53.726;-0.444;2023-12-07T11:11:48;1004.5;;;4.8;100.0
73316;BME280;61545;53.726;-0.444;2023-12-07T11:16:46;1004.3;;;unknown;100.0
73316;BME280;61545;53.726;-0.444;2023-12-07T11:21:46;1004.1;;;4.8;100.0
73316;BME280;61545;53.726;-0.444;2023-12-07T11:26:46;1004.1;;;unknown;100.0
73316;BME280;61545;53.726;-0.444;2023-12-07T11:31:46;1004.0;;;4.8;100.0
73316;BME280;61545;53.726;-0.444;2023-12-07T11:36:46;1003.9;;;4.8;100.0
73316;BME280;61545;53.726;-0.444;2023-12-07T11:41:50;1003.9;;;4.8;100.0
73316;BME280;61545;53.726;-0.444;2023-12-07T11:46:46;1003.7;;;4.8;100.0
73316;BME280;61545;53.726;-0.444;2023-12-07T11:51:46;1003.6;;;4.8;100.0
73316;BME280;61545;53.726;-0.444;2023-12-07T11:56:51;1003.5;;;4.8;100.0
73316;BME280;61545;53.726;-0.444;2023-12-07T12:01:46;1003.5;;;4.8;100.0
73316;BME280;61545;53.726;-0.444;2023-12-07T12:06:46;1003.5;;;4.8;100.0
73316;BME280;61545;53.726;-0.444;2023-12-07T12:11:46;1003.4;;;4.8;100.0
73316;BME280;61545;53.726;-0.444;2023-12-07T12:16:46;1003.5;;;4.8;100.0
73316;BME280;61545;53.726;-0.444;2023-12-07T12:21:46;1003.4;;;4.9;100.0
73316;BME280;61545;53.726;-0.444;2023-12-07T12:26:46;1003.3;;;4.9;100.0
73316;BME280;61545;53.726;-0.444;2023-12-07T12:31:46;1003.2;;;4.9;100.0
73316;BME280;61545;53.726;-0.444;2023-12-07T12:36:46;1002.9;;;4.9;100.0
73316;BME280;61545;53.726;-0.444;2023-12-07T12:41:46;1002.7;;;4.9;100.0
73316;BME280;61545;53.726;-0.444;2023-12-07T12:46:46;1002.4;;;4.9;100.0
73316;BME280;61545;53.726;-0.444;2023-12-07T12:51:46;1002.2;;;5.0;100.0
73316;BME280;61545;53.726;-0.444;2023-12-07T12:56:46;1002.3;;;5.0;100.0
73316;BME280;61545;53.726;-0.444;2023-12-07T13:01:46;1002.3;;;5.0;100.0
73316;BME280;61545;53.726;-0.444;2023-12-07T13:06:46;1002.2;;;5.0;100.0
73316;BME280;61545;53.726;-0.444;2023-12-07T13:11:46;1001.9;;;5.0;100.0
73316;BME280;61545;53.726;-0.444;2023-12-07T13:16:46;1001.9;;;5.0;100.0
73316;BME280;61545;53.726;-0.444;2023-12-07T13:21:46;1001.8;;;unknown;100.0
73316;BME280;61545;53.726;-0.444;2023-12-07T13:26:46;1001.7;;;5.0;100.0
73316;BME280;61545;53.726;-0.444;2023-12-07T13:31:46;1001.7;;;unknown;100.0
73316;BME280;61545;53.726;-0.444;2023-12-07T13:36:46;1001.7;;;5.0;100.0
73316;BME280;61545;53.726;-0.444;2023-12-07T13:41:46;1001.5;;;5.0;100.0
73316;BME280;61545;53.726;-0.444;2023-12-07T13:46:46;1001.3;;;5.0;100.0
73316;BME280;61545;53.726;-0.444;2023-12-07T13:51:46;1001.3;;;5.0;100.0
73316;BME280;61545;53.726;-0.444;2023-12-07T13:56:46;1001.1;;;5.0;100.0
73316;BME280;61545;53.726;-0.444;2023-12-07T14:01:46;1000.8;;;5.0;100.0
73316;BME280;61545;53.726;-0.444;2023-12-07T14:06:46;1000.7;;;5.0;100.0
73316;BME280;61545;53.726;-0.444;2023-12-07T14:11:46;1000.7;;;5.0;100.0
73316;BME280;61545;53.726;-0.444;2023-12-07T14:16:46;1000.7;;;5.0;100.0
73316;BME280;61545;53.726;-0.444;2023-12-07T14:21:46;1000.5;;;5.0;100.0
73316;BME280;61545;53.726;-0.444;2023-12-07T14:26:46;1000.5;;;unknown;100.0
73316;BME280;61545;53.726;-0.444;2023-12-07T14:31:47;1000.3;;;5.0;100.0
73316;BME280;61545;53.726;-0.444;2023-12-07T14:36:46;1000.2;;;5.0;100.0
73316;BME280;61545;53.726;-0.444;2023-12-07T14:41:47;1000.1;;;4.9;100.0
73316;BME280;61545;53.726;-0.444;2023-12-07T14:46:47;1000.1;;;5.0;100.0
73316;BME280;61545;53.726;-0.444;2023-12-07T14:51:46;1000.2;;;5.0;100.0
73316;BME280;61545;53.726;-0.444;2023-12-07T14:56:46;1000.1;;;unknown;100.0
73316;BME280;61545;53.726;-0.444;2023-12-07T15:01:46;1000.0;;;5.0;100.0
73316;BME280;61545;53.726;-0.444;2023-12-07T15:06:46;999.9;;;5.0;100.0
73316;BME280;61545;53.726;-0.444;2023-12-07T15:11:46;999.7;;;4.9;100.0
73316;BME280;61545;53.726;-0.444;2023-12-07T15:16:46;999.6;;;4.9;100.0
73316;BME280;61545;53.726;-0.444;2023-12-07T15:21:46;999.6;;;5.0;100.0
73316;BME280;61545;53.726;-0.444;2023-12-07T15:26:46;999.4;;;4.9;100.0
73316;BME280;61545;53.726;-0.444;2023-12-07T15:31:46;999.3;;;unknown;100.0
73316;BME280;61545;53.726;-0.444;2023-12-07T15:36:46;999.3;;;4.9;100.0
73316;BME280;61545;53.726;-0.444;2023-12-07T15:41:46;999.2;;;4.9;100.0
73316;BME280;61545;53.726;-0.444;2023-12-07T15:46:46;999.1;;;4.9;100.0
73316;BME280;61545;53.726;-0.444;2023-12-07T15:51:46;999.0;;;4.9;100.0
73316;BME280;61545;53.726;-0.444;2023-12-07T15:56:46;999.0;;;5.0;100.0
73316;BME280;61545;53.726;-0.444;2023-12-07T16:01:46;998.9;;;5.0;100.0
73316;BME280;61545;53.726;-0.444;2023-12-07T16:06:46;999.0;;;4.9;100.0
73316;BME280;61545;53.726;-0.444;2023-12-07T16:11:46;999.0;;;unknown;100.0
73316;BME280;61545;53.726;-0.444;2023-12-07T16:16:46;999.0;;;unknown;100.0
73316;BME280;61545;53.726;-0.444;2023-12-07T16:21:46;998.8;;;unknown;100.0
73316;BME280;61545;53.726;-0.444;2023-12-07T16:26:46;998.8;;;unknown;100.0
73316;BME280;61545;53.726;-0.444;2023-12-07T16:31:46;998.8;;;4.9;100.0
73316;BME280;61545;53.726;-0.444;2023-12-07T16:36:46;998.8;;;unknown;100.0
73316;BME280;61545;53.726;-0.444;2023-12-07T16:41:46;998.8;;;4.9;100.0
73316;BME280;61545;53.726;-0.444;2023-12-07T16:46:46;998.8;;;4.8;100.0
73316;BME280;61545;53.726;-0.444;2023-12-07T16:51:46;998.6;;;4.8;100.0
73316;BME280;61545;53.726;-0.444;2023-12-07T16:56:46;998.5;;;4.8;100.0
73316;BME280;61545;53.726;-0.444;2023-12-07T17:01:46;998.5;;;unknown;100.0
73316;BME280;61545;53.726;-0.444;2023-12-07T17:06:46;998.6;;;4.8;100.0
73316;BME280;61545;53.726;-0.444;2023-12-07T17:11:46;998.6;;;4.8;100.0
73316;BME280;61545;53.726;-0.444;2023-12-07T17:16:46;998.5;;;unknown;100.0
73316;BME280;61545;53.726;-0.444;2023-12-07T17:21:46;998.5;;;4.8;100.0
73316;BME280;61545;53.726;-0.444;2023-12-07T17:26:46;998.6;;;unknown;100.0
73316;BME280;61545;53.726;-0.444;2023-12-07T17:31:46;998.5;;;unknown;100.0
73316;BME280;61545;53.726;-0.444;2023-12-07T17:36:46;998.5;;;4.7;100.0
73316;BME280;61545;53.726;-0.444;2023-12-07T17:41:46;998.3;;;4.7;100.0
73316;BME280;61545;53.726;-0.444;2023-12-07T17:46:46;998.4;;;unknown;100.0
73316;BME280;61545;53.726;-0.444;2023-12-07T17:51:46;998.4;;;4.7;100.0
73316;BME280;61545;53.726;-0.444;2023-12-07T17:56:46;998.3;;;4.8;100.0
73316;BME280;61545;53.726;-0.444;2023-12-07T18:01:46;998.4;;;4.7;100.0
73316;BME280;61545;53.726;-0.444;2023-12-07T18:06:46;998.4;;;4.7;100.0
73316;BME280;61545;53.726;-0.444;2023-12-07T18:11:46;998.3;;;4.7;100.0
73316;BME280;61545;53.726;-0.444;2023-12-07T18:16:46;998.3;;;4.7;100.0
73316;BME280;61545;53.726;-0.444;2023-12-07T18:21:46;998.3;;;4.7;100.0
73316;BME280;61545;53.726;-0.444;2023-12-07T18:26:46;998.2;;;4.7;100.0
73316;BME280;61545;53.726;-0.444;2023-12-07T18:31:46;998.1;;;4.7;100.0
73316;BME280;61545;53.726;-0.444;2023-12-07T18:36:46;998.1;;;4.7;100.0
73316;BME280;61545;53.726;-0.444;2023-12-07T18:41:46;998.0;;;4.7;100.0
73316;BME280;61545;53.726;-0.444;2023-12-07T18:46:46;997.9;;;4.7;100.0
73316;BME280;61545;53.726;-0.444;2023-12-07T18:51:46;997.7;;;unknown;100.0
73316;BME280;61545;53.726;-0.444;2023-12-07T18:56:46;997.6;;;4.7;100.0
73316;BME280;61545;53.726;-0.444;2023-12-07T19:01:46;997.5;;;4.7;100.0
73316;BME280;61545;53.726;-0.444;2023-12-07T19:06:46;997.7;;;4.7;100.0
73316;BME280;61545;53.726;-0.444;2023-12-07T19:11:46;997.5;;;unknown;100.0
73316;BME280;61545;53.726;-0.444;2023-12-07T19:16:46;997.4;;;4.7;100.0
73316;BME280;61545;53.726;-0.444;2023-12-07T19:21:46;997.4;;;4.8;100.0
73316;BME280;61545;53.726;-0.444;2023-12-07T19:26:46;997.3;;;4.8;100.0
73316;BME280;61545;53.726;-0.444;2023-12-07T19:31:46;997.3;;;unknown;100.0
73316;BME280;61545;53.726;-0.444;2023-12-07T19:36:46;997.3;;;4.8;100.0
73316;BME280;61545;53.726;-0.444;2023-12-07T19:41:46;997.3;;;4.7;100.0
73316;BME280;61545;53.726;-0.444;2023-12-07T19:46:46;997.3;;;4.8;100.0
73316;BME280;61545;53.726;-0.444;2023-12-07T19:51:46;997.3;;;4.7;100.0
73316;BME280;61545;53.726;-0.444;2023-12-07T19:56:46;997.3;;;4.7;100.0
73316;BME280;61545;53.726;-0.444;2023-12-07T20:01:46;997.4;;;4.7;100.0
73316;BME280;61545;53.726;-0.444;2023-12-07T20:06:46;997.2;;;4.8;100.0
73316;BME280;61545;53.726;-0.444;2023-12-07T20:11:46;997.1;;;unknown;100.0
73316;BME280;61545;53.726;-0.444;2023-12-07T20:16:46;997.0;;;4.8;100.0
73316;BME280;61545;53.726;-0.444;2023-12-07T20:21:46;996.8;;;4.8;100.0
73316;BME280;61545;53.726;-0.444;2023-12-07T20:26:46;996.8;;;4.8;100.0
73316;BME280;61545;53.726;-0.444;2023-12-07T20:31:46;996.7;;;4.8;100.0
73316;BME280;61545;53.726;-0.444;2023-12-07T20:36:46;996.5;;;4.8;100.0
73316;BME280;61545;53.726;-0.444;2023-12-07T20:41:46;996.5;;;4.8;100.0
73316;BME280;61545;53.726;-0.444;2023-12-07T20:46:46;996.5;;;4.8;100.0
73316;BME280;61545;53.726;-0.444;2023-12-07T20:51:46;996.4;;;4.8;100.0
73316;BME280;61545;53.726;-0.444;2023-12-07T20:56:46;996.5;;;4.8;100.0
73316;BME280;61545;53.726;-0.444;2023-12-07T21:01:46;996.3;;;unknown;100.0
73316;BME280;61545;53.726;-0.444;2023-12-07T21:06:46;996.1;;;4.8;100.0
73316;BME280;61545;53.726;-0.444;2023-12-07T21:11:46;996.1;;;unknown;100.0
73316;BME280;61545;53.726;-0.444;2023-12-07T21:16:46;996.0;;;4.8;100.0
73316;BME280;61545;53.726;-0.444;2023-12-07T21:21:46;995.8;;;4.8;100.0
73316;BME280;61545;53.726;-0.444;2023-12-07T21:26:46;995.8;;;unknown;100.0
73316;BME280;61545;53.726;-0.444;2023-12-07T21:31:46;995.8;;;unknown;100.0
73316;BME280;61545;53.726;-0.444;2023-12-07T21:36:46;995.8;;;5.0;100.0
73316;BME280;61545;53.726;-0.444;2023-12-07T21:41:46;995.8;;;4.9;100.0
73316;BME280;61545;53.726;-0.444;2023-12-07T21:46:46;995.8;;;4.8;100.0
73316;BME280;61545;53.726;-0.444;2023-12-07T21:51:46;995.7;;;unknown;100.0
73316;BME280;61545;53.726;-0.444;2023-12-07T21:56:46;995.8;;;4.9;100.0
73316;BME280;61545;53.726;-0.444;2023-12-07T22:01:46;995.7;;;4.9;100.0
73316;BME280;61545;53.726;-0.444;2023-12-07T22:06:46;995.7;;;5.0;100.0
73316;BME280;61545;53.726;-0.444;2023-12-07T22:11:46;996.0;;;5.0;100.0
73316;BME280;61545;53.726;-0.444;2023-12-07T22:16:46;996.0;;;5.1;100.0
73316;BME280;61545;53.726;-0.444;2023-12-07T22:21:46;995.9;;;5.0;100.0
73316;BME280;61545;53.726;-0.444;2023-12-07T22:26:46;995.8;;;unknown;100.0
73316;BME280;61545;53.726;-0.444;2023-12-07T22:31:46;995.7;;;5.0;100.0
73316;BME280;61545;53.726;-0.444;2023-12-07T22:36:46;995.7;;;5.0;100.0
73316;BME280;61545;53.726;-0.444;2023-12-07T22:41:46;995.6;;;5.0;100.0
73316;BME280;61545;53.726;-0.444;2023-12-07T22:46:46;995.6;;;5.0;100.0
73316;BME280;61545;53.726;-0.444;2023-12-07T22:51:46;995.7;;;5.1;100.0
73316;BME280;61545;53.726;-0.444;2023-12-07T22:56:46;995.7;;;unknown;100.0
73316;BME280;61545;53.726;-0.444;2023-12-07T23:01:46;995.6;;;5.1;100.0
73316;BME280;61545;53.726;-0.444;2023-12-07T23:06:46;995.6;;;5.1;100.0
73316;BME280;61545;53.726;-0.444;2023-12-07T23:11:46;995.7;;;5.0;100.0
73316;BME280;61545;53.726;-0.444;2023-12-07T23:16:46;995.5;;;unknown;100.0
73316;BME280;61545;53.726;-0.444;2023-12-07T23:21:46;995.5;;;5.1;100.0
73316;BME280;61545;53.726;-0.444;2023-12-07T23:26:46;995.7;;;5.1;100.0
73316;BME280;61545;53.726;-0.444;2023-12-07T23:31:46;995.8;;;unknown;100.0
73316;BME280;61545;53.726;-0.444;2023-12-07T23:36:46;995.6;;;5.1;100.0
73316;BME280;61545;53.726;-0.444;2023-12-07T23:41:46;995.6;;;5.2;100.0
73316;BME280;61545;53.726;-0.444;2023-12-07T23:46:46;995.5;;;unknown;100.0
73316;BME280;61545;53.726;-0.444;2023-12-07T23:51:46;995.6;;;5.0;100.0
73316;BME280;61545;53.726;-0.444;2023-12-07T23:56:46;995.6;;;5.1;100.0
